createdAt,value
2023-05-05T00:00:41.066Z,70.78
2023-05-05T00:03:43.783Z,71.34
2023-05-05T00:06:47.960Z,71.83
2023-05-05T00:09:50.664Z,72.20
2023-05-05T00:12:53.394Z,72.57
2023-05-05T00:15:56.205Z,72.93
2023-05-05T00:19:00.218Z,73.15
2023-05-05T00:22:04.269Z,73.45
2023-05-05T00:25:07.707Z,73.61
2023-05-05T00:28:10.570Z,73.54
2023-05-05T00:31:13.329Z,73.49
2023-05-05T00:34:16.011Z,73.80
2023-05-05T00:37:20.096Z,73.91
2023-05-05T00:40:23.498Z,73.87
2023-05-05T00:43:26.356Z,73.75
2023-05-05T00:46:31.322Z,73.81
2023-05-05T00:49:34.165Z,73.99
2023-05-05T00:52:38.962Z,73.65
2023-05-05T00:55:41.940Z,73.81
2023-05-05T00:58:45.379Z,73.68
2023-05-05T01:01:48.180Z,73.91
2023-05-05T01:04:51.005Z,74.17
2023-05-05T01:08:19.774Z,73.80
2023-05-05T01:11:27.989Z,73.90
2023-05-05T01:14:40.815Z,74.00
2023-05-05T01:17:53.487Z,73.93
2023-05-05T01:21:02.854Z,74.06
2023-05-05T01:24:39.832Z,74.39
2023-05-05T01:28:06.331Z,74.31
2023-05-05T01:31:24.814Z,74.31
2023-05-05T01:34:34.618Z,74.60
2023-05-05T01:37:44.433Z,74.47
2023-05-05T01:40:51.024Z,74.32
2023-05-05T01:43:55.379Z,74.68
2023-05-05T01:47:00.695Z,74.64
2023-05-05T01:50:07.296Z,74.83
2023-05-05T01:53:11.495Z,75.10
2023-05-05T01:56:15.428Z,75.34
2023-05-05T01:59:19.841Z,75.57
2023-05-05T02:02:24.312Z,75.84
2023-05-05T02:05:29.094Z,76.15
2023-05-05T02:08:33.813Z,76.59
2023-05-05T02:11:37.032Z,76.58
2023-05-05T02:14:41.576Z,77.16
2023-05-05T02:17:44.822Z,77.11
2023-05-05T02:20:49.103Z,77.28
2023-05-05T02:23:51.937Z,77.46
2023-05-05T02:26:57.198Z,77.54
2023-05-05T02:30:03.065Z,77.30
2023-05-05T02:33:09.637Z,77.19
2023-05-05T02:36:18.813Z,77.60
2023-05-05T02:39:27.368Z,77.97
2023-05-05T02:42:36.312Z,77.70
2023-05-05T02:45:39.171Z,77.24
2023-05-05T02:48:41.879Z,77.60
2023-05-05T02:51:46.016Z,77.94
2023-05-05T02:54:48.781Z,77.66
2023-05-05T02:57:57.997Z,77.74
2023-05-05T03:01:09.531Z,77.65
2023-05-05T03:04:17.010Z,77.52
2023-05-05T03:07:26.306Z,77.59
2023-05-05T03:10:32.949Z,77.62
2023-05-05T03:13:37.623Z,77.66
2023-05-05T03:16:42.714Z,78.41
2023-05-05T03:19:45.987Z,78.54
2023-05-05T03:22:50.338Z,78.75
2023-05-05T03:25:53.200Z,79.05
2023-05-05T03:28:56.006Z,78.89
2023-05-05T03:31:59.339Z,79.51
2023-05-05T03:35:02.049Z,79.72
2023-05-05T03:38:06.252Z,79.85
2023-05-05T03:41:08.936Z,80.25
2023-05-05T03:44:11.702Z,80.42
2023-05-05T03:47:14.524Z,80.67
2023-05-05T03:50:17.589Z,80.68
2023-05-05T03:53:21.640Z,80.63
2023-05-05T03:56:24.491Z,80.77
2023-05-05T03:59:27.211Z,80.42
2023-05-05T04:02:30.016Z,80.23
2023-05-05T04:05:32.960Z,80.15
2023-05-05T04:08:37.106Z,80.35
2023-05-05T04:11:39.891Z,79.91
2023-05-05T04:14:42.538Z,80.02
2023-05-05T04:17:45.560Z,80.30
2023-05-05T04:20:48.599Z,80.64
2023-05-05T04:23:52.855Z,80.88
2023-05-05T04:26:55.681Z,81.29
2023-05-05T04:29:58.364Z,81.73
2023-05-05T04:33:01.188Z,81.64
2023-05-05T04:36:03.968Z,82.04
2023-05-05T04:39:08.668Z,82.21
2023-05-05T04:42:11.565Z,81.77
2023-05-05T04:45:14.406Z,81.60
2023-05-05T04:48:17.167Z,81.97
2023-05-05T04:51:19.858Z,81.38
2023-05-05T04:54:24.285Z,80.50
2023-05-05T04:57:27.345Z,80.24
2023-05-05T05:00:30.449Z,79.05
2023-05-05T05:03:33.158Z,79.04
2023-05-05T05:06:36.049Z,78.50
2023-05-05T05:09:40.200Z,78.65
2023-05-05T05:12:43.011Z,78.08
2023-05-05T05:15:46.559Z,77.55
2023-05-05T05:18:49.296Z,77.24
2023-05-05T05:21:52.004Z,76.89
2023-05-05T05:24:56.094Z,76.84
2023-05-05T05:28:09.419Z,76.70
2023-05-05T05:31:13.353Z,76.54
2023-05-05T05:34:16.050Z,76.44
2023-05-05T05:37:18.834Z,75.88
2023-05-05T05:40:22.976Z,74.84
2023-05-05T05:43:25.661Z,75.32
2023-05-05T05:46:28.440Z,74.62
2023-05-05T05:49:31.205Z,74.31
2023-05-05T05:52:36.090Z,73.90
2023-05-05T05:55:40.264Z,73.49
2023-05-05T05:58:42.948Z,73.38
2023-05-05T06:01:45.564Z,72.42
2023-05-05T06:04:48.417Z,70.75
2023-05-05T06:07:51.124Z,70.55
2023-05-05T06:10:55.158Z,70.84
2023-05-05T06:13:58.624Z,71.15
2023-05-05T06:17:01.423Z,71.45
2023-05-05T06:20:05.388Z,71.70
2023-05-05T06:23:08.385Z,70.34
2023-05-05T06:26:12.401Z,70.81
2023-05-05T06:29:15.290Z,70.64
2023-05-05T06:32:18.214Z,70.49
2023-05-05T06:35:20.932Z,70.05
2023-05-05T06:38:23.826Z,68.39
2023-05-05T06:41:27.910Z,68.54
2023-05-05T06:44:31.893Z,68.19
2023-05-05T06:47:34.948Z,68.21
2023-05-05T06:50:37.820Z,67.97
2023-05-05T06:53:40.872Z,68.49
2023-05-05T06:56:45.529Z,68.18
2023-05-05T06:59:48.391Z,67.43
2023-05-05T07:02:51.426Z,67.75
2023-05-05T07:05:54.934Z,67.91
2023-05-05T07:08:57.903Z,68.13
2023-05-05T07:12:02.068Z,68.29
2023-05-05T07:15:19.187Z,68.97
2023-05-05T07:18:28.736Z,68.84
2023-05-05T07:21:31.630Z,69.45
2023-05-05T07:24:34.972Z,70.32
2023-05-05T07:27:40.454Z,69.14
2023-05-05T07:30:43.311Z,68.43
2023-05-05T07:33:46.252Z,68.29
2023-05-05T07:36:49.229Z,68.76
2023-05-05T07:39:52.052Z,68.80
2023-05-05T07:42:56.362Z,69.27
2023-05-05T07:45:59.275Z,69.43
2023-05-05T07:49:02.139Z,71.02
2023-05-05T07:52:05.181Z,71.42
2023-05-05T07:55:08.229Z,69.96
2023-05-05T07:58:12.540Z,69.07
2023-05-05T08:01:15.903Z,69.12
2023-05-05T08:04:18.658Z,68.05
2023-05-05T08:07:21.904Z,69.32
2023-05-05T08:10:24.951Z,70.36
2023-05-05T08:13:30.225Z,72.48
2023-05-05T08:16:33.254Z,74.34
2023-05-05T08:19:36.164Z,73.67
2023-05-05T08:22:39.153Z,74.29
2023-05-05T08:25:42.082Z,73.11
2023-05-05T08:28:47.241Z,73.80
2023-05-05T08:31:50.577Z,73.66
2023-05-05T08:34:53.652Z,74.26
2023-05-05T08:37:58.935Z,75.76
2023-05-05T08:41:02.099Z,76.54
2023-05-05T08:44:06.662Z,76.12
2023-05-05T08:47:12.375Z,76.72
2023-05-05T08:50:15.928Z,76.74
2023-05-05T08:53:23.181Z,77.92
2023-05-05T08:56:28.231Z,78.80
2023-05-05T08:59:34.011Z,77.75
2023-05-05T09:02:38.069Z,78.15
2023-05-05T09:05:43.114Z,78.97
2023-05-05T09:08:46.408Z,77.60
2023-05-05T09:11:49.497Z,77.23
2023-05-05T09:14:53.657Z,76.82
2023-05-05T09:17:58.257Z,76.13
2023-05-05T09:21:01.382Z,75.44
2023-05-05T09:24:11.737Z,76.63
2023-05-05T09:27:22.896Z,77.49
2023-05-05T09:30:27.692Z,75.25
2023-05-05T09:36:58.596Z,76.47
2023-05-05T09:40:02.033Z,76.39
2023-05-05T09:43:05.084Z,77.25
2023-05-05T09:46:09.375Z,76.97
2023-05-05T09:49:18.121Z,74.70
2023-05-05T09:52:21.209Z,69.80
2023-05-05T09:55:24.667Z,71.17
2023-05-05T09:58:28.813Z,65.91
2023-05-05T10:01:32.951Z,65.46
2023-05-05T10:04:36.024Z,63.75
2023-05-05T10:07:40.062Z,64.18
2023-05-05T10:10:50.430Z,65.01
2023-05-05T10:13:53.498Z,66.05
2023-05-05T10:16:59.585Z,64.80
2023-05-05T10:20:03.928Z,64.81
2023-05-05T10:23:09.413Z,65.00
2023-05-05T10:26:15.475Z,64.56
2023-05-05T10:29:28.449Z,65.12
2023-05-05T10:35:51.810Z,66.74
2023-05-05T10:38:57.854Z,67.22
2023-05-05T10:42:02.986Z,68.22
2023-05-05T10:45:07.133Z,68.70
2023-05-05T10:48:33.961Z,68.26
2023-05-05T10:51:45.318Z,68.47
2023-05-05T10:54:53.738Z,68.44
2023-05-05T10:57:57.072Z,69.64
2023-05-05T11:01:00.254Z,68.69
2023-05-05T11:04:21.175Z,68.50
2023-05-05T11:07:26.334Z,67.67
2023-05-05T11:10:45.281Z,67.04
2023-05-05T11:13:48.062Z,64.36
2023-05-05T11:16:51.019Z,64.63
2023-05-05T11:19:55.265Z,65.85
2023-05-05T11:23:23.369Z,64.06
2023-05-05T11:26:52.421Z,63.69
2023-05-05T11:30:10.747Z,63.99
2023-05-05T11:33:26.034Z,63.53
2023-05-05T11:36:41.759Z,64.20
2023-05-05T11:39:54.670Z,60.85
2023-05-05T11:43:05.945Z,61.80
2023-05-05T11:46:12.599Z,60.72
2023-05-05T11:49:27.548Z,59.25
2023-05-05T11:52:31.834Z,56.33
2023-05-05T11:55:34.911Z,54.91
2023-05-05T11:58:37.876Z,57.01
2023-05-05T12:01:41.780Z,55.91
2023-05-05T12:04:44.664Z,53.63
2023-05-05T12:07:49.091Z,50.31
2023-05-05T12:10:51.962Z,52.46
2023-05-05T12:14:09.347Z,56.30
2023-05-05T12:17:12.169Z,55.04
2023-05-05T12:20:15.001Z,55.93
2023-05-05T12:23:19.212Z,55.53
2023-05-05T12:26:29.024Z,56.58
2023-05-05T12:29:31.760Z,55.62
2023-05-05T12:32:34.522Z,56.75
2023-05-05T12:35:37.853Z,56.05
2023-05-05T12:38:42.656Z,57.35
2023-05-05T12:41:45.740Z,57.40
2023-05-05T12:44:49.177Z,56.45
2023-05-05T12:47:52.090Z,54.91
2023-05-05T12:50:55.124Z,54.37
2023-05-05T12:54:07.240Z,55.72
2023-05-05T12:57:12.431Z,55.60
2023-05-05T13:00:17.533Z,55.14
2023-05-05T13:03:20.696Z,54.13
2023-05-05T13:06:24.739Z,53.41
2023-05-05T13:09:30.997Z,53.56
2023-05-05T13:12:33.713Z,52.57
2023-05-05T13:15:36.599Z,52.33
2023-05-05T13:18:46.162Z,50.19
2023-05-05T13:21:49.128Z,52.21
2023-05-05T13:24:53.657Z,51.19
2023-05-05T13:27:56.527Z,52.00
2023-05-05T13:30:59.927Z,52.12
2023-05-05T13:34:02.697Z,51.32
2023-05-05T13:37:05.433Z,51.17
2023-05-05T13:40:13.362Z,50.53
2023-05-05T13:43:16.241Z,50.95
2023-05-05T13:46:20.369Z,51.43
2023-05-05T13:49:23.835Z,51.85
2023-05-05T13:52:27.577Z,52.39
2023-05-05T13:55:32.700Z,52.25
2023-05-05T13:58:37.211Z,52.63
2023-05-05T14:01:40.686Z,54.72
2023-05-05T14:04:43.547Z,54.94
2023-05-05T14:07:46.964Z,54.85
2023-05-05T14:10:52.170Z,55.33
2023-05-05T14:13:55.216Z,57.30
2023-05-05T14:16:58.223Z,57.72
2023-05-05T14:20:01.274Z,57.36
2023-05-05T14:23:04.282Z,57.01
2023-05-05T14:26:09.547Z,55.94
2023-05-05T14:29:12.239Z,56.57
2023-05-05T14:32:15.136Z,56.11
2023-05-05T14:35:18.396Z,54.66
2023-05-05T14:38:21.280Z,56.42
2023-05-05T14:41:28.357Z,57.43
2023-05-05T14:44:31.466Z,58.03
2023-05-05T14:47:34.741Z,58.27
2023-05-05T14:50:38.632Z,58.78
2023-05-05T14:53:42.191Z,58.31
2023-05-05T14:56:46.398Z,59.01
2023-05-05T14:59:51.944Z,59.50
2023-05-05T15:02:54.782Z,58.60
2023-05-05T15:05:57.791Z,57.71
2023-05-05T15:09:00.540Z,59.79
2023-05-05T15:12:04.930Z,59.93
2023-05-05T15:15:09.477Z,60.17
2023-05-05T15:18:12.446Z,60.70
2023-05-05T15:21:15.330Z,60.83
2023-05-05T15:24:18.327Z,60.85
2023-05-05T15:27:22.915Z,61.50
2023-05-05T15:30:26.935Z,61.72
2023-05-05T15:33:30.911Z,61.56
2023-05-05T15:36:33.684Z,60.75
2023-05-05T15:39:36.402Z,62.06
2023-05-05T15:42:40.798Z,61.16
2023-05-05T15:45:44.354Z,61.66
2023-05-05T15:48:47.199Z,62.32
2023-05-05T15:51:50.177Z,63.28
2023-05-05T15:54:53.158Z,64.76
2023-05-05T15:57:57.490Z,67.96
2023-05-05T16:01:00.649Z,67.90
2023-05-05T16:04:03.687Z,72.89
2023-05-05T16:07:06.358Z,76.46
2023-05-05T16:10:10.718Z,79.29
2023-05-05T16:13:14.838Z,80.33
2023-05-05T16:16:17.733Z,81.86
2023-05-05T16:19:20.851Z,83.21
2023-05-05T16:22:23.760Z,84.16
2023-05-05T16:25:26.459Z,85.37
2023-05-05T16:28:30.623Z,87.13
2023-05-05T16:31:34.071Z,86.25
2023-05-05T16:34:36.834Z,85.51
2023-05-05T16:37:39.496Z,86.87
2023-05-05T16:40:42.248Z,87.73
2023-05-05T16:43:46.304Z,87.57
2023-05-05T16:46:49.148Z,87.87
2023-05-05T16:49:52.518Z,88.19
2023-05-05T16:52:56.349Z,89.19
2023-05-05T16:55:59.054Z,88.97
2023-05-05T16:59:03.098Z,90.12
2023-05-05T17:02:05.920Z,89.69
2023-05-05T17:05:09.735Z,89.38
2023-05-05T17:08:14.193Z,89.15
2023-05-05T17:11:17.222Z,89.16
2023-05-05T17:14:21.280Z,89.93
2023-05-05T17:17:23.997Z,89.89
2023-05-05T17:20:26.814Z,89.00
2023-05-05T17:23:29.524Z,89.77
2023-05-05T17:26:32.269Z,89.27
2023-05-05T17:29:40.959Z,89.07
2023-05-05T17:32:43.686Z,90.16
2023-05-05T17:35:47.192Z,90.41
2023-05-05T17:38:49.952Z,90.35
2023-05-05T17:41:52.785Z,90.03
2023-05-05T17:44:56.801Z,88.67
2023-05-05T17:47:59.718Z,88.95
2023-05-05T17:51:02.779Z,89.00
2023-05-05T17:54:05.773Z,89.04
2023-05-05T17:57:08.452Z,88.70
2023-05-05T18:00:13.794Z,88.96
2023-05-05T18:03:16.609Z,88.96
2023-05-05T18:06:19.560Z,89.32
2023-05-05T18:09:22.404Z,89.62
2023-05-05T18:12:25.784Z,90.35
2023-05-05T18:15:30.760Z,91.18
2023-05-05T18:18:33.537Z,91.66
2023-05-05T18:21:36.503Z,92.31
2023-05-05T18:24:39.320Z,92.59
2023-05-05T18:27:43.605Z,93.16
2023-05-05T18:30:48.011Z,93.52
2023-05-05T18:33:50.733Z,93.84
2023-05-05T18:36:54.249Z,94.82
2023-05-05T18:39:57.228Z,95.05
2023-05-05T18:42:59.966Z,95.10
2023-05-05T18:46:04.080Z,95.83
2023-05-05T18:49:07.386Z,96.18
2023-05-05T18:52:10.104Z,96.01
2023-05-05T18:55:12.785Z,95.96
2023-05-05T18:58:16.722Z,95.78
2023-05-05T19:01:20.848Z,96.02
2023-05-05T19:04:30.610Z,96.35
2023-05-05T19:07:35.801Z,96.47
2023-05-05T19:10:38.901Z,96.77
2023-05-05T19:13:41.756Z,97.17
2023-05-05T19:16:45.968Z,97.06
2023-05-05T19:19:49.167Z,96.92
2023-05-05T19:22:51.950Z,97.29
2023-05-05T19:25:54.768Z,97.31
2023-05-05T19:28:57.430Z,97.45
2023-05-05T19:32:01.489Z,97.50
2023-05-05T19:35:06.764Z,97.59
2023-05-05T19:38:10.886Z,97.98
2023-05-05T19:41:13.698Z,97.84
2023-05-05T19:44:16.549Z,97.94
2023-05-05T19:47:20.878Z,98.39
2023-05-05T19:50:24.092Z,97.97
2023-05-05T19:53:27.823Z,97.62
2023-05-05T19:56:30.548Z,96.94
2023-05-05T19:59:33.670Z,96.51
2023-05-05T20:02:38.118Z,95.74
2023-05-05T20:05:41.034Z,95.71
2023-05-05T20:08:43.911Z,95.68
2023-05-05T20:11:46.728Z,95.45
2023-05-05T20:14:49.683Z,95.63
2023-05-05T20:17:53.740Z,95.45
2023-05-05T20:20:56.513Z,95.74
2023-05-05T20:23:59.656Z,95.95
2023-05-05T20:27:03.269Z,96.01
2023-05-05T20:30:07.403Z,96.32
2023-05-05T20:33:11.743Z,96.55
2023-05-05T20:36:14.449Z,96.75
2023-05-05T20:39:17.272Z,96.82
2023-05-05T20:42:20.050Z,96.70
2023-05-05T20:45:22.791Z,96.93
2023-05-05T20:48:26.860Z,97.52
2023-05-05T20:51:32.027Z,97.77
2023-05-05T20:54:34.772Z,98.38
2023-05-05T20:57:37.555Z,98.37
2023-05-05T21:00:40.682Z,99.11
2023-05-05T21:03:44.828Z,98.54
2023-05-05T21:06:47.495Z,99.14
2023-05-05T21:09:50.499Z,99.06
2023-05-05T21:12:53.320Z,98.65
2023-05-05T21:15:56.102Z,98.16
2023-05-05T21:19:00.533Z,98.45
2023-05-05T21:22:03.180Z,98.51
2023-05-05T21:25:11.188Z,98.68
2023-05-05T21:28:13.914Z,98.91
2023-05-05T21:34:23.806Z,99.24
2023-05-05T21:37:26.763Z,98.97
2023-05-05T21:40:29.505Z,99.06
2023-05-05T21:43:32.190Z,98.83
2023-05-05T21:46:35.065Z,99.05
2023-05-05T21:49:39.254Z,99.30
2023-05-05T21:52:41.960Z,98.93
2023-05-05T21:55:45.582Z,99.09
2023-05-05T21:58:48.353Z,98.99
2023-05-05T22:01:51.189Z,99.13
2023-05-05T22:04:55.477Z,99.33
2023-05-05T22:07:58.308Z,99.41
2023-05-05T22:11:01.694Z,99.11
2023-05-05T22:14:04.393Z,98.86
2023-05-05T22:17:07.764Z,99.04
2023-05-05T22:20:12.662Z,98.92
2023-05-05T22:23:16.172Z,99.22
2023-05-05T22:26:18.953Z,99.52
2023-05-05T22:29:21.777Z,99.30
2023-05-05T22:32:24.559Z,99.51
2023-05-05T22:35:28.643Z,99.72
2023-05-05T22:38:31.394Z,99.55
2023-05-05T22:41:34.156Z,99.51
2023-05-05T22:44:37.058Z,99.57
2023-05-05T22:47:39.867Z,99.53
2023-05-05T22:50:44.139Z,99.06
2023-05-05T22:53:46.856Z,98.55
2023-05-05T22:56:49.710Z,98.36
2023-05-05T22:59:52.472Z,97.89
2023-05-05T23:02:55.342Z,98.22
2023-05-05T23:05:59.867Z,98.06
2023-05-05T23:09:02.738Z,97.90
2023-05-05T23:12:05.533Z,98.06
2023-05-05T23:15:09.979Z,97.64
2023-05-05T23:18:13.072Z,97.60
2023-05-05T23:21:17.292Z,97.49
2023-05-05T23:24:20.176Z,97.81
2023-05-05T23:27:23.718Z,97.74
2023-05-05T23:30:26.484Z,98.04
2023-05-05T23:33:29.147Z,97.97
2023-05-05T23:36:33.266Z,98.25
2023-05-05T23:39:36.144Z,98.70
2023-05-05T23:42:38.927Z,98.42
2023-05-05T23:45:41.719Z,98.52
2023-05-05T23:48:44.392Z,98.65
2023-05-05T23:51:48.464Z,98.55
2023-05-05T23:54:51.247Z,98.79
2023-05-05T23:57:54.019Z,98.48
